sensor_id;sensor_type;location;lat;lon;timestamp;P1;durP1;ratioP1;P2;durP2;ratioP2
12451;SDS011;6291;48.924;12.204;2023-03-04T00:03:07;10.13;;;4.73;;
12451;SDS011;6291;48.924;12.204;2023-03-04T00:08:12;12.80;;;4.53;;
12451;SDS011;6291;48.924;12.204;2023-03-04T00:13:17;14.15;;;8.52;;
12451;SDS011;6291;48.924;12.204;2023-03-04T00:18:22;9.73;;;5.40;;
12451;SDS011;6291;48.924;12.204;2023-03-04T00:23:26;8.67;;;4.90;;
12451;SDS011;6291;48.924;12.204;2023-03-04T00:28:30;9.83;;;4.67;;
12451;SDS011;6291;48.924;12.204;2023-03-04T00:33:35;14.85;;;8.73;;
12451;SDS011;6291;48.924;12.204;2023-03-04T00:38:39;14.98;;;9.02;;
12451;SDS011;6291;48.924;12.204;2023-03-04T00:43:44;11.57;;;7.63;;
12451;SDS011;6291;48.924;12.204;2023-03-04T00:48:47;13.77;;;8.73;;
12451;SDS011;6291;48.924;12.204;2023-03-04T00:53:50;13.67;;;8.93;;
12451;SDS011;6291;48.924;12.204;2023-03-04T00:58:55;13.93;;;8.83;;
12451;SDS011;6291;48.924;12.204;2023-03-04T01:03:59;14.33;;;9.00;;
12451;SDS011;6291;48.924;12.204;2023-03-04T01:09:02;8.50;;;4.80;;
12451;SDS011;6291;48.924;12.204;2023-03-04T01:14:08;10.83;;;4.93;;
12451;SDS011;6291;48.924;12.204;2023-03-04T01:19:11;6.07;;;3.03;;
12451;SDS011;6291;48.924;12.204;2023-03-04T01:24:16;9.07;;;4.23;;
12451;SDS011;6291;48.924;12.204;2023-03-04T01:29:21;7.17;;;4.10;;
12451;SDS011;6291;48.924;12.204;2023-03-04T01:34:29;9.43;;;4.00;;
12451;SDS011;6291;48.924;12.204;2023-03-04T01:39:33;11.83;;;4.50;;
12451;SDS011;6291;48.924;12.204;2023-03-04T01:44:38;6.10;;;3.57;;
12451;SDS011;6291;48.924;12.204;2023-03-04T01:49:41;5.10;;;3.50;;
12451;SDS011;6291;48.924;12.204;2023-03-04T01:54:45;10.07;;;2.87;;
12451;SDS011;6291;48.924;12.204;2023-03-04T02:05:27;7.73;;;3.73;;
12451;SDS011;6291;48.924;12.204;2023-03-04T02:10:31;9.87;;;4.40;;
12451;SDS011;6291;48.924;12.204;2023-03-04T02:15:37;8.47;;;4.63;;
12451;SDS011;6291;48.924;12.204;2023-03-04T02:20:42;8.67;;;4.10;;
12451;SDS011;6291;48.924;12.204;2023-03-04T02:26:09;7.13;;;3.70;;
12451;SDS011;6291;48.924;12.204;2023-03-04T02:31:24;8.43;;;4.63;;
12451;SDS011;6291;48.924;12.204;2023-03-04T02:36:36;7.87;;;4.23;;
12451;SDS011;6291;48.924;12.204;2023-03-04T02:41:44;6.70;;;4.67;;
12451;SDS011;6291;48.924;12.204;2023-03-04T02:46:50;10.33;;;5.70;;
12451;SDS011;6291;48.924;12.204;2023-03-04T02:51:59;11.10;;;5.47;;
12451;SDS011;6291;48.924;12.204;2023-03-04T02:57:08;8.63;;;4.37;;
12451;SDS011;6291;48.924;12.204;2023-03-04T03:02:16;11.40;;;4.77;;
12451;SDS011;6291;48.924;12.204;2023-03-04T03:07:20;9.47;;;4.03;;
12451;SDS011;6291;48.924;12.204;2023-03-04T03:12:26;7.70;;;4.80;;
12451;SDS011;6291;48.924;12.204;2023-03-04T03:17:33;11.03;;;5.70;;
12451;SDS011;6291;48.924;12.204;2023-03-04T03:22:37;8.93;;;5.13;;
12451;SDS011;6291;48.924;12.204;2023-03-04T03:27:48;9.60;;;4.70;;
12451;SDS011;6291;48.924;12.204;2023-03-04T03:32:58;6.73;;;4.27;;
12451;SDS011;6291;48.924;12.204;2023-03-04T03:38:08;9.67;;;4.57;;
12451;SDS011;6291;48.924;12.204;2023-03-04T03:43:16;8.53;;;4.50;;
12451;SDS011;6291;48.924;12.204;2023-03-04T03:48:22;9.13;;;4.57;;
12451;SDS011;6291;48.924;12.204;2023-03-04T03:53:30;9.60;;;4.60;;
12451;SDS011;6291;48.924;12.204;2023-03-04T03:58:37;10.57;;;5.57;;
12451;SDS011;6291;48.924;12.204;2023-03-04T04:03:45;8.97;;;4.83;;
12451;SDS011;6291;48.924;12.204;2023-03-04T04:08:50;12.67;;;5.10;;
12451;SDS011;6291;48.924;12.204;2023-03-04T04:13:56;8.03;;;4.90;;
12451;SDS011;6291;48.924;12.204;2023-03-04T04:19:01;7.90;;;4.90;;
12451;SDS011;6291;48.924;12.204;2023-03-04T04:24:19;8.13;;;4.30;;
12451;SDS011;6291;48.924;12.204;2023-03-04T04:29:31;10.37;;;5.20;;
12451;SDS011;6291;48.924;12.204;2023-03-04T04:34:36;8.77;;;4.13;;
12451;SDS011;6291;48.924;12.204;2023-03-04T04:39:43;9.20;;;4.40;;
12451;SDS011;6291;48.924;12.204;2023-03-04T04:45:01;12.57;;;4.50;;
12451;SDS011;6291;48.924;12.204;2023-03-04T04:50:09;10.40;;;4.20;;
12451;SDS011;6291;48.924;12.204;2023-03-04T04:55:14;8.00;;;4.63;;
12451;SDS011;6291;48.924;12.204;2023-03-04T05:00:19;9.13;;;4.83;;
12451;SDS011;6291;48.924;12.204;2023-03-04T05:05:23;12.13;;;5.03;;
12451;SDS011;6291;48.924;12.204;2023-03-04T05:10:26;7.97;;;4.90;;
12451;SDS011;6291;48.924;12.204;2023-03-04T05:15:31;7.90;;;4.57;;
12451;SDS011;6291;48.924;12.204;2023-03-04T05:20:34;6.53;;;4.43;;
12451;SDS011;6291;48.924;12.204;2023-03-04T05:25:43;9.67;;;4.63;;
12451;SDS011;6291;48.924;12.204;2023-03-04T05:30:53;8.87;;;4.00;;
12451;SDS011;6291;48.924;12.204;2023-03-04T05:35:57;6.60;;;3.27;;
12451;SDS011;6291;48.924;12.204;2023-03-04T05:41:03;7.73;;;4.87;;
12451;SDS011;6291;48.924;12.204;2023-03-04T05:46:16;11.30;;;5.53;;
12451;SDS011;6291;48.924;12.204;2023-03-04T05:51:28;11.67;;;5.37;;
12451;SDS011;6291;48.924;12.204;2023-03-04T05:56:32;9.37;;;4.77;;
12451;SDS011;6291;48.924;12.204;2023-03-04T06:01:38;6.03;;;3.97;;
12451;SDS011;6291;48.924;12.204;2023-03-04T06:06:41;9.03;;;3.47;;
12451;SDS011;6291;48.924;12.204;2023-03-04T06:11:46;6.07;;;4.57;;
12451;SDS011;6291;48.924;12.204;2023-03-04T06:16:51;15.47;;;6.33;;
12451;SDS011;6291;48.924;12.204;2023-03-04T06:21:54;10.70;;;5.53;;
12451;SDS011;6291;48.924;12.204;2023-03-04T06:27:01;10.20;;;6.00;;
12451;SDS011;6291;48.924;12.204;2023-03-04T06:32:05;10.70;;;5.40;;
12451;SDS011;6291;48.924;12.204;2023-03-04T06:37:10;12.63;;;7.17;;
12451;SDS011;6291;48.924;12.204;2023-03-04T06:42:16;8.40;;;4.70;;
12451;SDS011;6291;48.924;12.204;2023-03-04T06:47:31;14.23;;;6.20;;
12451;SDS011;6291;48.924;12.204;2023-03-04T06:52:48;12.57;;;6.43;;
12451;SDS011;6291;48.924;12.204;2023-03-04T06:58:01;13.70;;;6.57;;
12451;SDS011;6291;48.924;12.204;2023-03-04T07:03:06;8.73;;;4.90;;
12451;SDS011;6291;48.924;12.204;2023-03-04T07:08:11;13.23;;;6.83;;
12451;SDS011;6291;48.924;12.204;2023-03-04T07:13:14;10.60;;;4.60;;
12451;SDS011;6291;48.924;12.204;2023-03-04T07:18:19;6.13;;;3.43;;
12451;SDS011;6291;48.924;12.204;2023-03-04T07:23:22;10.13;;;4.70;;
12451;SDS011;6291;48.924;12.204;2023-03-04T07:28:25;11.83;;;5.87;;
12451;SDS011;6291;48.924;12.204;2023-03-04T07:33:30;13.53;;;6.50;;
12451;SDS011;6291;48.924;12.204;2023-03-04T07:38:33;13.17;;;7.00;;
12451;SDS011;6291;48.924;12.204;2023-03-04T07:43:36;11.57;;;7.27;;
12451;SDS011;6291;48.924;12.204;2023-03-04T07:48:41;12.10;;;6.20;;
12451;SDS011;6291;48.924;12.204;2023-03-04T07:53:46;13.43;;;6.60;;
12451;SDS011;6291;48.924;12.204;2023-03-04T07:58:51;10.03;;;6.17;;
12451;SDS011;6291;48.924;12.204;2023-03-04T08:03:56;11.37;;;5.70;;
12451;SDS011;6291;48.924;12.204;2023-03-04T08:09:00;11.50;;;6.93;;
12451;SDS011;6291;48.924;12.204;2023-03-04T08:14:06;13.97;;;7.17;;
12451;SDS011;6291;48.924;12.204;2023-03-04T08:19:12;12.63;;;6.43;;
12451;SDS011;6291;48.924;12.204;2023-03-04T08:24:15;9.13;;;5.60;;
12451;SDS011;6291;48.924;12.204;2023-03-04T08:29:19;10.73;;;6.57;;
12451;SDS011;6291;48.924;12.204;2023-03-04T08:34:26;12.83;;;7.43;;
12451;SDS011;6291;48.924;12.204;2023-03-04T08:39:30;9.63;;;5.87;;
12451;SDS011;6291;48.924;12.204;2023-03-04T08:44:33;14.60;;;6.43;;
12451;SDS011;6291;48.924;12.204;2023-03-04T08:49:38;12.40;;;5.93;;
12451;SDS011;6291;48.924;12.204;2023-03-04T08:54:41;13.97;;;7.70;;
12451;SDS011;6291;48.924;12.204;2023-03-04T08:59:44;12.23;;;6.20;;
12451;SDS011;6291;48.924;12.204;2023-03-04T09:04:49;11.03;;;6.33;;
12451;SDS011;6291;48.924;12.204;2023-03-04T09:09:52;9.93;;;5.50;;
12451;SDS011;6291;48.924;12.204;2023-03-04T09:14:56;9.43;;;5.77;;
12451;SDS011;6291;48.924;12.204;2023-03-04T09:20:13;11.27;;;5.90;;
12451;SDS011;6291;48.924;12.204;2023-03-04T09:25:17;10.03;;;4.40;;
12451;SDS011;6291;48.924;12.204;2023-03-04T09:30:20;18.83;;;6.13;;
12451;SDS011;6291;48.924;12.204;2023-03-04T09:35:25;6.77;;;3.87;;
12451;SDS011;6291;48.924;12.204;2023-03-04T09:40:31;11.80;;;6.83;;
12451;SDS011;6291;48.924;12.204;2023-03-04T09:45:40;8.63;;;5.10;;
12451;SDS011;6291;48.924;12.204;2023-03-04T09:50:49;7.20;;;3.70;;
12451;SDS011;6291;48.924;12.204;2023-03-04T09:56:01;9.33;;;5.13;;
12451;SDS011;6291;48.924;12.204;2023-03-04T10:01:07;12.35;;;8.20;;
12451;SDS011;6291;48.924;12.204;2023-03-04T10:06:17;12.52;;;8.07;;
12451;SDS011;6291;48.924;12.204;2023-03-04T10:11:23;13.48;;;8.48;;
12451;SDS011;6291;48.924;12.204;2023-03-04T10:16:30;10.35;;;7.63;;
12451;SDS011;6291;48.924;12.204;2023-03-04T10:21:42;11.43;;;8.50;;
12451;SDS011;6291;48.924;12.204;2023-03-04T10:26:49;9.40;;;6.45;;
12451;SDS011;6291;48.924;12.204;2023-03-04T10:31:55;10.07;;;7.43;;
12451;SDS011;6291;48.924;12.204;2023-03-04T10:37:00;9.82;;;7.00;;
12451;SDS011;6291;48.924;12.204;2023-03-04T10:42:09;10.67;;;7.60;;
12451;SDS011;6291;48.924;12.204;2023-03-04T10:47:27;13.67;;;8.63;;
12451;SDS011;6291;48.924;12.204;2023-03-04T10:52:35;12.30;;;8.00;;
12451;SDS011;6291;48.924;12.204;2023-03-04T10:57:42;12.48;;;8.40;;
12451;SDS011;6291;48.924;12.204;2023-03-04T11:02:49;15.43;;;10.27;;
12451;SDS011;6291;48.924;12.204;2023-03-04T11:07:54;14.38;;;9.45;;
12451;SDS011;6291;48.924;12.204;2023-03-04T11:13:01;14.70;;;9.50;;
12451;SDS011;6291;48.924;12.204;2023-03-04T11:18:14;13.80;;;9.50;;
12451;SDS011;6291;48.924;12.204;2023-03-04T11:23:22;16.55;;;11.43;;
12451;SDS011;6291;48.924;12.204;2023-03-04T11:28:35;17.43;;;10.67;;
12451;SDS011;6291;48.924;12.204;2023-03-04T11:33:52;18.55;;;12.02;;
12451;SDS011;6291;48.924;12.204;2023-03-04T11:39:00;19.88;;;12.32;;
12451;SDS011;6291;48.924;12.204;2023-03-04T11:44:07;21.57;;;13.87;;
12451;SDS011;6291;48.924;12.204;2023-03-04T11:49:25;20.95;;;12.05;;
12451;SDS011;6291;48.924;12.204;2023-03-04T11:55:08;25.50;;;15.50;;
12451;SDS011;6291;48.924;12.204;2023-03-04T12:00:29;18.00;;;12.00;;
12451;SDS011;6291;48.924;12.204;2023-03-04T12:05:42;22.03;;;13.60;;
12451;SDS011;6291;48.924;12.204;2023-03-04T12:11:00;15.70;;;10.30;;
12451;SDS011;6291;48.924;12.204;2023-03-04T12:16:11;17.40;;;11.43;;
12451;SDS011;6291;48.924;12.204;2023-03-04T12:21:31;18.23;;;12.00;;
12451;SDS011;6291;48.924;12.204;2023-03-04T12:26:57;21.70;;;12.75;;
12451;SDS011;6291;48.924;12.204;2023-03-04T12:32:13;20.95;;;13.20;;
12451;SDS011;6291;48.924;12.204;2023-03-04T12:37:32;20.83;;;13.38;;
12451;SDS011;6291;48.924;12.204;2023-03-04T12:42:56;19.02;;;13.43;;
12451;SDS011;6291;48.924;12.204;2023-03-04T12:48:11;20.47;;;13.63;;
12451;SDS011;6291;48.924;12.204;2023-03-04T12:53:28;22.90;;;15.47;;
12451;SDS011;6291;48.924;12.204;2023-03-04T12:58:36;18.15;;;13.07;;
12451;SDS011;6291;48.924;12.204;2023-03-04T13:03:41;20.35;;;14.10;;
12451;SDS011;6291;48.924;12.204;2023-03-04T13:08:54;18.93;;;13.50;;
12451;SDS011;6291;48.924;12.204;2023-03-04T13:14:04;21.20;;;14.40;;
12451;SDS011;6291;48.924;12.204;2023-03-04T13:24:44;23.52;;;14.00;;
12451;SDS011;6291;48.924;12.204;2023-03-04T13:29:52;26.43;;;16.97;;
12451;SDS011;6291;48.924;12.204;2023-03-04T13:34:58;24.42;;;16.20;;
12451;SDS011;6291;48.924;12.204;2023-03-04T13:45:38;17.87;;;12.97;;
12451;SDS011;6291;48.924;12.204;2023-03-04T13:50:44;18.20;;;12.80;;
12451;SDS011;6291;48.924;12.204;2023-03-04T14:01:27;18.50;;;13.20;;
12451;SDS011;6291;48.924;12.204;2023-03-04T14:06:32;21.30;;;15.50;;
12451;SDS011;6291;48.924;12.204;2023-03-04T14:11:35;20.47;;;13.20;;
12451;SDS011;6291;48.924;12.204;2023-03-04T14:16:45;17.45;;;13.15;;
12451;SDS011;6291;48.924;12.204;2023-03-04T14:21:51;18.38;;;13.13;;
12451;SDS011;6291;48.924;12.204;2023-03-04T14:27:09;19.93;;;12.80;;
12451;SDS011;6291;48.924;12.204;2023-03-04T14:32:15;19.37;;;12.90;;
12451;SDS011;6291;48.924;12.204;2023-03-04T14:37:19;17.23;;;12.90;;
12451;SDS011;6291;48.924;12.204;2023-03-04T14:42:26;18.83;;;13.27;;
12451;SDS011;6291;48.924;12.204;2023-03-04T14:47:37;20.85;;;14.63;;
12451;SDS011;6291;48.924;12.204;2023-03-04T14:52:46;17.50;;;13.40;;
12451;SDS011;6291;48.924;12.204;2023-03-04T14:57:52;18.67;;;12.80;;
12451;SDS011;6291;48.924;12.204;2023-03-04T15:03:17;18.25;;;12.57;;
12451;SDS011;6291;48.924;12.204;2023-03-04T15:08:24;18.27;;;13.45;;
12451;SDS011;6291;48.924;12.204;2023-03-04T15:13:37;17.55;;;12.90;;
12451;SDS011;6291;48.924;12.204;2023-03-04T15:18:53;20.23;;;13.15;;
12451;SDS011;6291;48.924;12.204;2023-03-04T15:24:03;18.92;;;13.55;;
12451;SDS011;6291;48.924;12.204;2023-03-04T15:29:10;18.02;;;13.23;;
12451;SDS011;6291;48.924;12.204;2023-03-04T15:34:18;17.63;;;12.27;;
12451;SDS011;6291;48.924;12.204;2023-03-04T15:39:22;18.33;;;12.32;;
12451;SDS011;6291;48.924;12.204;2023-03-04T15:44:27;16.97;;;11.93;;
12451;SDS011;6291;48.924;12.204;2023-03-04T15:49:32;17.20;;;12.63;;
12451;SDS011;6291;48.924;12.204;2023-03-04T15:54:35;17.23;;;13.30;;
12451;SDS011;6291;48.924;12.204;2023-03-04T15:59:39;18.37;;;14.17;;
12451;SDS011;6291;48.924;12.204;2023-03-04T16:04:43;18.50;;;13.73;;
12451;SDS011;6291;48.924;12.204;2023-03-04T16:09:47;21.50;;;16.83;;
12451;SDS011;6291;48.924;12.204;2023-03-04T16:14:55;21.17;;;15.52;;
12451;SDS011;6291;48.924;12.204;2023-03-04T16:19:59;23.23;;;16.25;;
12451;SDS011;6291;48.924;12.204;2023-03-04T16:25:03;18.67;;;13.90;;
12451;SDS011;6291;48.924;12.204;2023-03-04T16:30:08;15.43;;;8.43;;
12451;SDS011;6291;48.924;12.204;2023-03-04T16:35:18;11.03;;;6.63;;
12451;SDS011;6291;48.924;12.204;2023-03-04T16:40:26;9.40;;;4.53;;
12451;SDS011;6291;48.924;12.204;2023-03-04T16:45:30;5.17;;;3.53;;
12451;SDS011;6291;48.924;12.204;2023-03-04T16:50:38;15.40;;;7.80;;
12451;SDS011;6291;48.924;12.204;2023-03-04T16:55:41;6.30;;;3.43;;
12451;SDS011;6291;48.924;12.204;2023-03-04T17:00:44;14.53;;;6.27;;
12451;SDS011;6291;48.924;12.204;2023-03-04T17:05:49;16.33;;;7.67;;
12451;SDS011;6291;48.924;12.204;2023-03-04T17:10:53;12.07;;;6.57;;
12451;SDS011;6291;48.924;12.204;2023-03-04T17:15:58;10.53;;;6.90;;
12451;SDS011;6291;48.924;12.204;2023-03-04T17:21:04;9.37;;;4.67;;
12451;SDS011;6291;48.924;12.204;2023-03-04T17:26:09;9.53;;;4.13;;
12451;SDS011;6291;48.924;12.204;2023-03-04T17:31:14;8.20;;;4.23;;
12451;SDS011;6291;48.924;12.204;2023-03-04T17:36:20;1.97;;;1.80;;
12451;SDS011;6291;48.924;12.204;2023-03-04T17:41:23;6.40;;;4.00;;
12451;SDS011;6291;48.924;12.204;2023-03-04T17:46:27;5.50;;;2.77;;
12451;SDS011;6291;48.924;12.204;2023-03-04T17:51:33;2.80;;;2.13;;
12451;SDS011;6291;48.924;12.204;2023-03-04T17:56:37;1.00;;;0.33;;
12451;SDS011;6291;48.924;12.204;2023-03-04T18:01:42;5.17;;;3.77;;
12451;SDS011;6291;48.924;12.204;2023-03-04T18:06:48;6.57;;;3.83;;
12451;SDS011;6291;48.924;12.204;2023-03-04T18:11:51;3.00;;;2.00;;
12451;SDS011;6291;48.924;12.204;2023-03-04T18:16:54;8.17;;;5.07;;
12451;SDS011;6291;48.924;12.204;2023-03-04T18:21:59;4.17;;;2.70;;
12451;SDS011;6291;48.924;12.204;2023-03-04T18:27:02;9.90;;;3.97;;
12451;SDS011;6291;48.924;12.204;2023-03-04T18:32:06;6.13;;;2.63;;
12451;SDS011;6291;48.924;12.204;2023-03-04T18:37:11;2.70;;;2.43;;
12451;SDS011;6291;48.924;12.204;2023-03-04T18:42:14;7.90;;;3.40;;
12451;SDS011;6291;48.924;12.204;2023-03-04T18:47:18;4.80;;;3.53;;
12451;SDS011;6291;48.924;12.204;2023-03-04T18:52:23;3.17;;;2.33;;
12451;SDS011;6291;48.924;12.204;2023-03-04T18:57:26;11.27;;;5.10;;
12451;SDS011;6291;48.924;12.204;2023-03-04T19:02:30;5.23;;;3.40;;
12451;SDS011;6291;48.924;12.204;2023-03-04T19:07:39;8.60;;;3.87;;
12451;SDS011;6291;48.924;12.204;2023-03-04T19:12:42;5.50;;;3.97;;
12451;SDS011;6291;48.924;12.204;2023-03-04T19:17:46;6.30;;;4.23;;
12451;SDS011;6291;48.924;12.204;2023-03-04T19:22:50;9.90;;;4.43;;
12451;SDS011;6291;48.924;12.204;2023-03-04T19:27:54;13.53;;;6.13;;
12451;SDS011;6291;48.924;12.204;2023-03-04T19:32:57;7.73;;;3.73;;
12451;SDS011;6291;48.924;12.204;2023-03-04T19:38:02;4.47;;;3.63;;
12451;SDS011;6291;48.924;12.204;2023-03-04T19:43:06;10.77;;;4.13;;
12451;SDS011;6291;48.924;12.204;2023-03-04T19:48:09;9.60;;;5.73;;
12451;SDS011;6291;48.924;12.204;2023-03-04T19:53:14;5.80;;;3.77;;
12451;SDS011;6291;48.924;12.204;2023-03-04T19:58:19;2.50;;;1.57;;
12451;SDS011;6291;48.924;12.204;2023-03-04T20:03:22;2.73;;;2.17;;
12451;SDS011;6291;48.924;12.204;2023-03-04T20:08:28;3.70;;;2.73;;
12451;SDS011;6291;48.924;12.204;2023-03-04T20:13:31;1.30;;;1.03;;
12451;SDS011;6291;48.924;12.204;2023-03-04T20:18:35;12.13;;;6.00;;
12451;SDS011;6291;48.924;12.204;2023-03-04T20:23:40;7.70;;;4.80;;
12451;SDS011;6291;48.924;12.204;2023-03-04T20:28:43;3.77;;;2.47;;
12451;SDS011;6291;48.924;12.204;2023-03-04T20:33:47;8.53;;;4.30;;
12451;SDS011;6291;48.924;12.204;2023-03-04T20:38:54;14.20;;;4.57;;
12451;SDS011;6291;48.924;12.204;2023-03-04T20:44:04;0.80;;;0.73;;
12451;SDS011;6291;48.924;12.204;2023-03-04T20:49:08;6.07;;;4.03;;
12451;SDS011;6291;48.924;12.204;2023-03-04T20:54:14;12.83;;;5.00;;
12451;SDS011;6291;48.924;12.204;2023-03-04T20:59:18;4.80;;;2.73;;
12451;SDS011;6291;48.924;12.204;2023-03-04T21:04:22;3.10;;;1.83;;
12451;SDS011;6291;48.924;12.204;2023-03-04T21:09:27;14.33;;;4.83;;
12451;SDS011;6291;48.924;12.204;2023-03-04T21:14:31;7.03;;;4.23;;
12451;SDS011;6291;48.924;12.204;2023-03-04T21:19:35;6.90;;;4.33;;
12451;SDS011;6291;48.924;12.204;2023-03-04T21:24:44;4.70;;;2.67;;
12451;SDS011;6291;48.924;12.204;2023-03-04T21:29:48;10.70;;;4.37;;
12451;SDS011;6291;48.924;12.204;2023-03-04T21:34:53;14.20;;;6.10;;
12451;SDS011;6291;48.924;12.204;2023-03-04T21:39:58;8.70;;;4.73;;
12451;SDS011;6291;48.924;12.204;2023-03-04T21:45:03;9.77;;;4.70;;
12451;SDS011;6291;48.924;12.204;2023-03-04T21:50:08;6.53;;;2.67;;
12451;SDS011;6291;48.924;12.204;2023-03-04T21:55:13;6.30;;;2.83;;
12451;SDS011;6291;48.924;12.204;2023-03-04T22:00:17;3.50;;;2.80;;
12451;SDS011;6291;48.924;12.204;2023-03-04T22:05:22;12.37;;;7.00;;
12451;SDS011;6291;48.924;12.204;2023-03-04T22:10:26;6.43;;;3.60;;
12451;SDS011;6291;48.924;12.204;2023-03-04T22:15:31;11.20;;;6.97;;
12451;SDS011;6291;48.924;12.204;2023-03-04T22:20:35;8.10;;;4.70;;
12451;SDS011;6291;48.924;12.204;2023-03-04T22:25:41;15.83;;;7.90;;
12451;SDS011;6291;48.924;12.204;2023-03-04T22:30:44;4.23;;;3.30;;
12451;SDS011;6291;48.924;12.204;2023-03-04T22:35:48;8.00;;;4.50;;
12451;SDS011;6291;48.924;12.204;2023-03-04T22:40:53;11.53;;;6.67;;
12451;SDS011;6291;48.924;12.204;2023-03-04T22:45:56;3.63;;;2.87;;
12451;SDS011;6291;48.924;12.204;2023-03-04T22:51:03;8.27;;;4.43;;
12451;SDS011;6291;48.924;12.204;2023-03-04T22:56:10;8.67;;;4.70;;
12451;SDS011;6291;48.924;12.204;2023-03-04T23:01:14;6.07;;;3.13;;
12451;SDS011;6291;48.924;12.204;2023-03-04T23:06:23;22.20;;;9.07;;
12451;SDS011;6291;48.924;12.204;2023-03-04T23:11:30;16.03;;;4.60;;
12451;SDS011;6291;48.924;12.204;2023-03-04T23:16:35;5.50;;;4.27;;
12451;SDS011;6291;48.924;12.204;2023-03-04T23:21:43;6.77;;;3.83;;
12451;SDS011;6291;48.924;12.204;2023-03-04T23:26:48;6.23;;;3.97;;
12451;SDS011;6291;48.924;12.204;2023-03-04T23:31:52;6.80;;;4.07;;
12451;SDS011;6291;48.924;12.204;2023-03-04T23:36:56;11.20;;;7.43;;
12451;SDS011;6291;48.924;12.204;2023-03-04T23:42:00;10.77;;;5.77;;
12451;SDS011;6291;48.924;12.204;2023-03-04T23:47:04;10.87;;;6.00;;
12451;SDS011;6291;48.924;12.204;2023-03-04T23:52:08;11.27;;;7.00;;
12451;SDS011;6291;48.924;12.204;2023-03-04T23:57:12;6.03;;;3.57;;
